Latest Weather Observations for Dennes Point

IDT60901

Issued at 5:21 am EDT Friday 19 December 2014 (issued every 10 minutes, with the page automatically refreshed every 10 minutes)

About weather observations | Map of Hobart area stations | Latest observations for Hobart area | Other Formats
Station Details ID: 094255 Name: DENNES POINT Lat: -43.06 Lon: 147.36 Height: 5.67 m
Data from the previous 72 hours. | See also: Recent months at Dennes Point
Date/Time
EDT
Tmp

°C
App
Tmp
°C
Dew
Point
°C
Rel
Hum
%
Delta-T

°C
Wind Press
QNH
hPa
Press
MSL
hPa
Rain
since
9 am
mm
Dir
 
Spd
km/h
Gust
km/h
Spd
kts
Gust
kts
19/05:00am 9.5 6.6 4.7 72 2.1 SW 9 17 5 9 1009.1 1009.0 0.0
19/04:30am 10.8 6.1 5.3 69 2.5 WSW 19 24 10 13 1008.7 1008.6 0.0
19/04:00am 10.6 7.9 5.6 71 2.3 SSW 9 13 5 7 1008.5 1008.4 0.0
19/03:30am 11.4 6.7 6.1 70 2.5 WSW 20 28 11 15 1008.1 1008.0 0.0
19/03:00am 11.2 6.5 5.9 70 2.5 WSW 20 26 11 14 1008.0 1007.9 0.0
19/02:30am 11.2 6.4 5.5 68 2.6 WSW 20 26 11 14 1007.8 1007.7 0.0
19/02:00am 11.4 6.6 5.7 68 2.6 WSW 20 26 11 14 1007.8 1007.7 0.0
19/01:30am 11.6 5.6 5.5 66 2.8 WSW 26 32 14 17 1007.6 1007.5 0.0
19/01:00am 11.8 6.3 5.7 66 2.8 WSW 24 30 13 16 1007.2 1007.1 0.0
19/12:30am 11.8 7.2 5.7 66 2.8 WSW 19 26 10 14 1007.0 1006.9 0.0
19/12:00am 12.1 7.4 5.3 63 3.2 WSW 19 26 10 14 1006.8 1006.7 0.0
 
Date/Time
EDT
Tmp

°C
App
Tmp
°C
Dew
Point
°C
Rel
Hum
%
Delta-T

°C
Wind Press
QNH
hPa
Press
MSL
hPa
Rain
since
9 am
mm
Dir
 
Spd
km/h
Gust
km/h
Spd
kts
Gust
kts
18/11:30pm 12.3 7.5 4.8 60 3.4 WSW 19 26 10 14 1006.4 1006.3 0.0
18/11:00pm 12.5 7.1 4.7 59 3.6 WSW 22 28 12 15 1006.3 1006.2 0.0
18/10:30pm 12.9 6.9 5.1 59 3.6 WSW 26 35 14 19 1006.2 1006.1 0.0
18/10:00pm 13.2 7.5 5.1 58 3.8 WSW 24 33 13 18 1006.0 1005.9 0.0
18/09:30pm 13.4 7.1 5.6 59 3.7 W 28 41 15 22 1005.1 1005.0 0.0
18/09:00pm 13.9 5.3 6.3 60 3.7 WSW 41 61 22 33 1004.2 1004.1 0.0
18/08:43pm 14.3 7.4 6.4 59 3.8 WSW 32 50 17 27 1003.9 1003.8 0.0
18/08:30pm 14.5 6.5 5.6 55 4.2 WSW 37 46 20 25 1003.6 1003.5 0.0
18/08:00pm 15.5 9.2 5.7 52 4.7 WSW 28 39 15 21 1003.1 1003.0 0.0
18/07:30pm 16.2 10.9 6.9 54 4.6 W 24 32 13 17 1002.5 1002.4 0.0
18/07:00pm 16.6 12.2 7.5 55 4.6 W 20 30 11 16 1001.9 1001.9 0.0
18/06:30pm 16.4 10.9 7.6 56 4.4 W 26 35 14 19 1001.2 1001.2 0.0
18/06:08pm 16.9 11.1 8.1 56 4.5 W 28 46 15 25 1000.9 1000.9 0.0
18/06:00pm 17.0 12.5 8.4 57 4.4 W 22 28 12 15 1001.0 1001.0 0.0
18/05:30pm 16.7 12.7 8.1 57 4.4 W 19 28 10 15 1000.9 1000.9 0.0
18/05:00pm 15.9 11.4 8.4 61 3.8 W 22 28 12 15 1000.6 1000.6 0.0
18/04:30pm 14.9 11.0 8.6 66 3.2 W 19 26 10 14 1000.5 1000.5 0.0
18/04:00pm 15.1 8.8 8.8 66 3.2 W 32 43 17 23 1000.6 1000.6 0.0
18/03:30pm 18.6 12.1 8.3 51 5.3 WNW 32 52 17 28 999.9 999.9 0.0
18/03:25pm 18.6 12.3 8.8 53 5.1 WNW 32 52 17 28 999.7 999.7 0.0
18/03:22pm 18.9 12.7 8.0 49 5.6 WNW 30 52 16 28 999.5 999.5 0.0
18/03:00pm 19.5 15.0 8.5 49 5.8 NW 22 32 12 17 999.2 999.2 0.0
18/02:30pm 18.5 12.4 9.8 57 4.6 N 32 39 17 21 999.2 999.2 0.0
18/02:00pm 18.7 12.4 8.9 53 5.1 N 32 39 17 21 999.1 999.1 0.0
18/01:30pm 19.2 15.0 7.6 47 5.9 NNE 19 33 10 18 999.4 999.4 0.0
18/01:00pm 19.1 15.9 10.1 56 4.8 NNE 17 22 9 12 999.8 999.8 0.0
18/12:30pm 18.8 14.7 10.1 57 4.7 NNE 22 30 12 16 1000.4 1000.4 0.0
18/12:00pm 18.3 14.3 10.4 60 4.3 N 22 28 12 15 1000.9 1000.9 0.0
18/11:30am 18.4 15.0 9.2 55 4.8 NE 17 20 9 11 1001.2 1001.2 0.0
18/11:00am 17.8 13.8 8.1 53 5.0 NNE 19 24 10 13 1001.5 1001.5 0.0
18/10:30am 16.1 11.0 7.6 57 4.2 NNE 24 30 13 16 1001.9 1001.9 0.0
18/10:00am 16.3 10.9 7.8 57 4.3 N 26 32 14 17 1002.3 1002.2 0.0
18/09:30am 15.7 9.9 8.0 60 3.9 N 28 33 15 18 1002.7 1002.6 0.0
18/09:00am 15.4 9.9 7.4 59 4.0 N 26 33 14 18 1002.9 1002.8 0.0
18/08:30am 15.4 12.8 6.2 54 4.5 NE 9 26 5 14 1003.1 1003.0 0.0
18/08:00am 14.7 12.3 4.4 50 4.8 WSW 6 9 3 5 1003.3 1003.2 0.0
18/07:30am 13.6 9.3 6.9 64 3.2 N 19 24 10 13 1003.4 1003.3 0.0
18/07:00am 13.3 11.5 5.5 59 3.7 NE 4 6 2 3 1003.3 1003.2 0.0
18/06:30am 12.4 11.1 5.8 64 3.1 W 2 7 1 4 1003.5 1003.4 0.0
18/06:00am 12.1 10.9 4.8 61 3.4 CALM 0 0 0 0 1003.3 1003.2 0.0
18/05:30am 12.0 10.4 4.7 61 3.3 S 2 6 1 3 1003.3 1003.2 0.0
18/05:00am 10.7 8.7 4.4 65 2.8 NNW 4 7 2 4 1003.3 1003.2 0.0
18/04:30am 11.8 10.5 4.3 60 3.4 CALM 0 4 0 2 1003.2 1003.1 0.0
18/04:00am 12.1 9.4 3.6 56 3.8 WNW 7 9 4 5 1003.4 1003.3 0.0
18/03:30am 11.6 7.8 4.1 60 3.4 W 13 15 7 8 1003.6 1003.5 0.0
18/03:00am 10.2 7.4 5.2 71 2.3 SW 9 13 5 7 1003.7 1003.6 0.0
18/02:30am 10.9 8.7 5.2 68 2.6 SSW 6 9 3 5 1003.7 1003.6 0.0
18/02:00am 11.5 8.8 5.8 68 2.7 SSW 9 11 5 6 1004.0 1003.9 0.0
18/01:30am 12.4 10.3 5.6 63 3.2 WSW 6 7 3 4 1004.2 1004.1 0.0
18/01:00am 12.8 10.2 5.9 63 3.3 SSW 9 11 5 6 1004.7 1004.6 0.0
18/12:30am 12.7 10.2 6.5 66 3.0 SW 9 11 5 6 1004.8 1004.7 0.0
18/12:00am 13.1 11.2 7.5 69 2.7 SSW 7 9 4 5 1005.0 1004.9 0.0
 
Date/Time
EDT
Tmp

°C
App
Tmp
°C
Dew
Point
°C
Rel
Hum
%
Delta-T

°C
Wind Press
QNH
hPa
Press
MSL
hPa
Rain
since
9 am
mm
Dir
 
Spd
km/h
Gust
km/h
Spd
kts
Gust
kts
17/11:30pm 14.6 12.6 8.5 67 3.1 N 9 11 5 6 1005.2 1005.1 0.0
17/11:00pm 14.6 11.4 9.8 73 2.5 NE 17 20 9 11 1005.5 1005.4 0.0
17/10:30pm 14.8 11.2 9.8 72 2.6 ENE 19 22 10 12 1006.0 1005.9 0.0
17/10:00pm 14.8 10.9 9.4 70 2.8 NE 20 28 11 15 1006.0 1005.9 0.0
17/09:30pm 14.8 9.7 9.2 69 2.9 NE 26 32 14 17 1005.9 1005.8 0.0
17/09:00pm 14.8 10.4 9.0 68 3.0 ENE 22 28 12 15 1005.8 1005.7 0.0
17/08:30pm 15.0 10.9 8.7 66 3.2 ENE 20 26 11 14 1005.6 1005.5 0.0
17/08:00pm 15.5 11.8 6.5 55 4.4 ESE 15 26 8 14 1005.6 1005.5 0.0
17/07:30pm 16.3 13.1 5.0 47 5.4 WSW 11 17 6 9 1004.9 1004.8 0.0
17/07:00pm 15.5 13.7 7.8 60 3.9 SSE 7 13 4 7 1004.9 1004.8 0.0
17/06:30pm 15.1 11.4 8.1 63 3.5 ESE 17 20 9 11 1004.5 1004.4 0.0
17/06:00pm 15.2 10.9 8.0 62 3.6 ESE 20 26 11 14 1004.0 1003.9 0.0
17/05:30pm 15.5 11.2 7.8 60 3.8 ESE 20 26 11 14 1004.0 1003.9 0.0
17/05:00pm 18.3 14.9 1.8 33 7.5 SW 9 15 5 8 1004.0 1003.9 0.0
17/04:30pm 18.4 14.3 2.3 34 7.3 W 13 20 7 11 1004.0 1003.9 0.0
17/04:00pm 18.2 13.0 2.5 35 7.2 WNW 19 30 10 16 1003.8 1003.7 0.0
17/03:30pm 19.1 13.7 4.5 38 7.0 W 22 30 12 16 1003.7 1003.6 0.0
17/03:00pm 18.7 15.2 3.7 37 7.1 SW 11 15 6 8 1003.6 1003.5 0.0
17/02:30pm 17.1 13.8 2.3 37 6.7 WSW 9 17 5 9 1003.6 1003.5 0.0
17/02:00pm 18.4 13.9 5.9 44 6.2 WSW 19 26 10 14 1003.6 1003.5 0.0
17/01:30pm 17.4 13.6 4.0 41 6.3 W 13 17 7 9 1003.7 1003.6 0.0
17/01:00pm 17.7 12.7 4.6 42 6.3 W 20 28 11 15 1003.6 1003.5 0.0
17/12:30pm 17.6 11.2 5.2 44 6.0 W 28 39 15 21 1003.5 1003.4 0.0
17/12:18pm 17.1 10.0 3.8 41 6.2 W 30 48 16 26 1003.2 1003.1 0.0
17/12:00pm 17.0 11.6 6.2 49 5.3 W 24 37 13 20 1003.0 1002.9 0.0
17/11:30am 16.0 9.1 6.4 53 4.7 WSW 32 39 17 21 1002.9 1002.8 0.0
17/11:00am 13.6 8.7 6.7 63 3.3 W 22 33 12 18 1002.6 1002.5 0.0
17/10:30am 15.1 10.7 5.0 51 4.7 W 17 26 9 14 1002.4 1002.3 0.0
17/10:00am 14.9 10.0 7.0 59 3.9 WNW 22 28 12 15 1002.1 1002.0 0.0
17/09:30am 13.6 10.1 5.5 58 3.8 W 13 22 7 12 1001.9 1001.9 0.0
17/09:00am 13.7 8.9 4.8 55 4.1 WSW 19 24 10 13 1001.5 1001.5 5.6
17/08:30am 12.2 7.3 3.9 57 3.7 W 19 28 10 15 1001.0 1001.0 5.6
17/08:00am 11.8 6.0 4.3 60 3.4 W 24 39 13 21 1000.5 1000.5 5.6
17/07:49am 12.2 5.6 4.4 59 3.5 W 28 46 15 25 1000.1 1000.1 5.6
17/07:30am 11.8 4.2 4.1 59 3.5 W 33 44 18 24 999.9 999.9 5.6
17/07:00am 12.1 5.5 4.3 59 3.5 W 28 37 15 20 999.4 999.4 5.6
17/06:30am 11.4 1.4 4.4 62 3.2 W 46 63 25 34 998.0 998.0 5.6
17/06:26am 11.5 2.1 4.5 62 3.2 W 43 59 23 32 997.9 997.9 5.6
17/06:00am 11.2 5.1 4.7 64 3.0 W 26 35 14 19 998.0 998.0 5.6
17/05:30am 11.0 5.9 4.0 62 3.1 WSW 20 28 11 15 997.5 997.5 5.6
17/05:00am 11.1 3.7 4.1 62 3.1 W 32 46 17 25 996.8 996.8 5.6
17/04:31am 11.1 3.6 4.6 64 2.9 WSW 33 52 18 28 996.0 996.0 5.6
17/04:30am 11.1 3.8 4.3 63 3.0 WSW 32 48 17 26 996.0 996.0 5.6
17/04:26am 11.1 4.5 4.3 63 3.0 WSW 28 48 15 26 996.0 996.0 5.6
17/04:00am 11.6 6.5 3.9 59 3.5 WSW 20 37 11 20 995.8 995.8 5.6
17/03:30am 11.6 5.1 4.6 62 3.2 WSW 28 50 15 27 994.9 994.9 5.6
17/03:00am 12.0 4.1 4.2 59 3.5 W 35 50 19 27 994.3 994.3 5.6
17/02:43am 11.9 5.1 5.3 64 3.0 W 30 50 16 27 993.9 993.9 5.6
17/02:30am 11.9 4.7 5.1 63 3.1 W 32 44 17 24 993.6 993.6 5.6
17/02:00am 12.1 3.8 5.9 66 2.9 W 39 52 21 28 993.0 993.0 5.6
17/01:30am 11.7 3.8 6.2 69 2.6 WSW 37 52 20 28 992.7 992.7 5.6
17/01:00am 12.7 4.7 7.4 70 2.6 W 39 46 21 25 992.4 992.4 5.6
17/12:30am 12.5 5.7 7.6 72 2.4 W 33 43 18 23 991.9 991.9 5.6
17/12:00am 13.4 7.6 7.8 69 2.8 W 28 35 15 19 991.5 991.5 5.6
 
Date/Time
EDT
Tmp

°C
App
Tmp
°C
Dew
Point
°C
Rel
Hum
%
Delta-T

°C
Wind Press
QNH
hPa
Press
MSL
hPa
Rain
since
9 am
mm
Dir
 
Spd
km/h
Gust
km/h
Spd
kts
Gust
kts
16/11:30pm 13.8 7.4 7.1 64 3.3 WSW 30 44 16 24 991.0 991.0 5.6
16/11:00pm 14.2 8.0 7.9 66 3.2 W 30 39 16 21 990.6 990.6 5.6
16/10:30pm 13.9 6.9 7.0 63 3.4 W 33 44 18 24 989.8 989.8 5.6
16/10:06pm 14.3 8.1 7.8 65 3.2 WNW 30 50 16 27 989.2 989.2 5.6
16/10:00pm 14.2 8.3 7.3 63 3.4 WNW 28 39 15 21 989.1 989.1 5.6
16/09:30pm 14.8 9.0 7.8 63 3.5 W 28 35 15 19 988.3 988.3 5.6
16/09:00pm 15.5 7.0 8.5 63 3.6 W 43 59 23 32 987.2 987.2 5.6
16/08:38pm 17.0 10.4 7.9 55 4.6 WNW 32 44 17 24 986.2 986.2 5.6
16/08:30pm 17.1 10.6 8.3 56 4.5 NW 32 41 17 22 985.9 985.9 5.6
16/08:18pm 17.1 10.6 8.0 55 4.6 NW 32 50 17 27 985.6 985.6 5.6
16/08:00pm 16.6 11.7 10.0 65 3.5 NNW 26 35 14 19 985.6 985.6 5.6
16/07:30pm 15.9 13.2 13.0 83 1.6 NE 19 28 10 15 985.5 985.5 5.6
16/07:00pm 17.3 16.8 12.8 75 2.5 W 7 13 4 7 985.1 985.1 5.6
16/06:30pm 15.4 14.0 13.4 88 1.1 ESE 13 19 7 10 984.9 984.9 5.6
16/06:00pm 15.4 12.1 12.9 85 1.4 ESE 22 30 12 16 984.4 984.4 5.6
16/05:30pm 16.2 14.5 13.7 85 1.4 SSE 15 24 8 13 984.2 984.2 5.6
16/05:00pm 17.3 14.4 12.4 73 2.7 SE 19 28 10 15 983.4 983.4 3.2
16/04:30pm 20.6 18.5 13.6 64 4.0 S 17 28 9 15 982.7 982.7 3.2
16/04:00pm 20.0 17.2 14.4 70 3.3 S 22 33 12 18 983.2 983.2 3.2
16/03:30pm 19.0 17.1 15.1 78 2.3 SSW 19 26 10 14 984.4 984.4 3.2
16/03:00pm 16.9 13.6 14.9 88 1.2 SSW 26 37 14 20 984.7 984.7 3.2
16/02:49pm 16.5 12.9 14.2 86 1.3 SSW 26 43 14 23 985.8 985.8 3.2
16/02:30pm 18.4 17.4 15.5 83 1.7 SW 15 24 8 13 985.1 985.1 1.6
16/02:00pm 21.4 21.1 14.3 64 4.2 WSW 9 17 5 9 985.4 985.4 0.4
16/01:30pm 21.0 23.1 18.2 84 1.7 SE 4 6 2 3 985.9 985.9 0.4
16/01:00pm 19.8 20.2 15.2 75 2.7 S 7 9 4 5 987.4 987.4 0.0
16/12:30pm 22.7 22.5 13.5 56 5.3 WSW 7 13 4 7 988.2 988.2 0.0
16/12:00pm 22.3 21.5 13.9 59 4.9 ESE 11 15 6 8 988.9 988.9 0.0
16/11:30am 20.7 20.2 13.9 65 3.9 ESE 9 15 5 8 990.0 990.0 0.0
16/11:00am 20.6 20.4 13.6 64 4.1 ESE 7 11 4 6 990.7 990.7 0.0
16/10:30am 18.8 18.7 12.1 65 3.7 NNE 4 6 2 3 991.6 991.6 0.0
16/10:00am 17.6 17.1 12.7 73 2.8 ENE 7 9 4 5 992.2 992.2 0.0
16/09:30am 17.9 17.7 11.9 68 3.3 NNE 4 4 2 2 992.6 992.6 0.0
16/09:00am 16.9 15.6 12.4 75 2.5 N 11 13 6 7 993.5 993.5 0.0
16/08:30am 16.8 14.0 12.5 76 2.4 NE 19 22 10 12 993.9 993.9 0.0
16/08:00am 16.2 13.9 12.9 81 1.8 ENE 17 20 9 11 994.3 994.3 0.0
16/07:30am 15.6 12.8 12.7 83 1.6 NE 19 24 10 13 994.5 994.5 0.0
16/07:00am 14.8 11.5 12.7 87 1.2 NNE 22 26 12 14 995.0 995.0 0.0
16/06:30am 14.7 11.9 12.6 87 1.1 NE 19 24 10 13 995.5 995.5 0.0
16/06:00am 14.5 11.7 12.5 88 1.1 NNE 19 22 10 12 996.4 996.4 0.0
16/05:30am 14.5 11.7 12.7 89 1.0 NNE 19 24 10 13 997.0 997.0 0.0

Latest Capital City Observations: Canberra | Sydney | Melbourne | Brisbane | Adelaide | Perth | Hobart | Darwin

Other Formats:

Comma delimited format used in spreadsheet applications
http://www.bom.gov.au/fwo/IDT60901/IDT60901.94988.axf

JavaScript Object Notation format (JSON) in row-major order
http://www.bom.gov.au/fwo/IDT60901/IDT60901.94988.json